createdAt,value
2023-01-08T00:00:44.521Z,9.08
2023-01-08T00:06:16.129Z,8.95
2023-01-08T00:11:47.988Z,9.07
2023-01-08T00:17:19.551Z,8.95
2023-01-08T00:22:51.308Z,8.75
2023-01-08T00:28:23.485Z,8.66
2023-01-08T00:33:54.973Z,8.67
2023-01-08T00:39:26.697Z,8.68
2023-01-08T00:44:58.236Z,8.68
2023-01-08T00:50:34.573Z,8.63
2023-01-08T00:56:06.116Z,8.53
2023-01-08T01:01:37.825Z,8.47
2023-01-08T01:07:09.516Z,8.44
2023-01-08T01:12:41.205Z,8.36
2023-01-08T01:18:13.192Z,8.39
2023-01-08T01:23:44.679Z,8.28
2023-01-08T01:29:16.676Z,8.11
2023-01-08T01:34:48.310Z,8.15
2023-01-08T01:40:19.830Z,8.23
2023-01-08T01:45:51.771Z,8.14
2023-01-08T01:51:27.875Z,8.2
2023-01-08T01:56:59.563Z,8.17
2023-01-08T02:02:31.347Z,7.96
2023-01-08T02:08:02.835Z,8.37
2023-01-08T02:13:34.577Z,8.28
2023-01-08T02:19:06.499Z,8.45
2023-01-08T02:24:38.151Z,8.62
2023-01-08T02:30:09.732Z,8.77
2023-01-08T02:35:41.435Z,8.8
2023-01-08T02:41:13.168Z,8.62
2023-01-08T02:46:45.251Z,8.62
2023-01-08T02:52:22.998Z,8.92
2023-01-08T02:57:55.239Z,8.97
2023-01-08T03:03:26.420Z,8.86
2023-01-08T03:08:58.165Z,8.95
2023-01-08T03:14:29.846Z,9.02
2023-01-08T03:20:01.621Z,8.94
2023-01-08T03:25:33.326Z,9.02
2023-01-08T03:31:05.082Z,9.15
2023-01-08T03:36:36.795Z,9.18
2023-01-08T03:42:08.486Z,9.18
2023-01-08T03:47:40.887Z,9.2
2023-01-08T03:53:16.581Z,9.12
2023-01-08T03:58:48.067Z,9.38
2023-01-08T04:04:19.806Z,9.47
2023-01-08T04:09:51.722Z,9.48
2023-01-08T04:15:23.366Z,9.55
2023-01-08T04:20:54.920Z,9.65
2023-01-08T04:26:27.316Z,9.69
2023-01-08T04:31:58.532Z,9.65
2023-01-08T04:37:30.063Z,9.7
2023-01-08T04:43:01.781Z,9.65
2023-01-08T04:48:33.744Z,9.58
2023-01-08T04:54:09.611Z,9.73
2023-01-08T04:59:41.683Z,9.78
2023-01-08T05:05:13.225Z,9.84
2023-01-08T05:10:44.930Z,9.99
2023-01-08T05:16:16.557Z,9.94
2023-01-08T05:21:48.247Z,9.88
2023-01-08T05:27:19.948Z,9.97
2023-01-08T05:32:51.692Z,9.92
2023-01-08T05:38:23.552Z,9.88
2023-01-08T05:43:55.384Z,9.83
2023-01-08T05:49:27.029Z,9.89
2023-01-08T05:55:05.082Z,9.76
2023-01-08T06:00:36.722Z,9.72
2023-01-08T06:06:08.400Z,9.68
2023-01-08T06:11:40.133Z,9.65
2023-01-08T06:17:12.144Z,9.7
2023-01-08T06:22:43.938Z,9.68
2023-01-08T06:28:15.429Z,9.96
2023-01-08T06:33:47.040Z,10.12
2023-01-08T06:39:18.803Z,10.06
2023-01-08T06:44:50.864Z,9.98
2023-01-08T06:50:22.232Z,10.06
2023-01-08T06:55:58.341Z,10.27
2023-01-08T07:01:30.198Z,10.48
2023-01-08T07:07:01.709Z,10.38
2023-01-08T07:12:33.430Z,10.47
2023-01-08T07:18:05.350Z,10.36
2023-01-08T07:23:37.051Z,10.34
2023-01-08T07:29:08.617Z,10.28
2023-01-08T07:34:40.318Z,10.29
2023-01-08T07:40:11.992Z,10.15
2023-01-08T07:45:43.799Z,10.11
2023-01-08T07:51:15.518Z,9.97
2023-01-08T07:56:51.585Z,9.95
2023-01-08T08:02:23.427Z,9.82
2023-01-08T08:07:55.024Z,9.85
2023-01-08T08:13:26.947Z,9.75
2023-01-08T08:18:58.696Z,9.82
2023-01-08T08:24:30.354Z,9.7
2023-01-08T08:30:01.985Z,9.61
2023-01-08T08:35:33.703Z,9.56
2023-01-08T08:41:05.397Z,9.68
2023-01-08T08:46:37.168Z,9.67
2023-01-08T08:52:08.866Z,9.56
2023-01-08T08:57:45.112Z,9.67
2023-01-08T09:03:16.730Z,9.92
2023-01-08T09:08:48.401Z,9.81
2023-01-08T09:14:20.136Z,9.84
2023-01-08T09:19:51.843Z,9.93
2023-01-08T09:25:23.584Z,10.17
2023-01-08T09:30:55.383Z,9.87
2023-01-08T09:36:26.999Z,9.94
2023-01-08T09:41:58.687Z,10.12
2023-01-08T09:47:30.627Z,10.03
2023-01-08T09:53:02.322Z,9.91
2023-01-08T09:58:38.422Z,10.15
2023-01-08T10:04:09.900Z,10.04
2023-01-08T10:09:41.857Z,10.06
2023-01-08T10:15:13.420Z,10.16
2023-01-08T10:20:45.119Z,10.21
2023-01-08T10:26:16.839Z,10.15
2023-01-08T10:31:49.141Z,10.37
2023-01-08T10:37:20.587Z,10.38
2023-01-08T10:42:52.259Z,10.32
2023-01-08T10:48:23.865Z,10.27
2023-01-08T10:53:55.620Z,10.39
2023-01-08T10:59:33.872Z,10.39
2023-01-08T11:05:05.790Z,10.5
2023-01-08T11:10:37.229Z,10.41
2023-01-08T11:16:09.454Z,10.49
2023-01-08T11:21:40.469Z,10.48
2023-01-08T11:27:12.462Z,10.63
2023-01-08T11:32:44.141Z,10.66
2023-01-08T11:38:15.883Z,10.76
2023-01-08T11:43:47.394Z,10.73
2023-01-08T11:49:19.120Z,10.86
2023-01-08T11:54:50.776Z,10.79
2023-01-08T12:00:27.077Z,10.64
2023-01-08T12:05:58.659Z,10.76
2023-01-08T12:11:30.509Z,10.84
2023-01-08T12:17:02.101Z,10.78
2023-01-08T12:22:34.029Z,11.09
2023-01-08T12:28:05.535Z,11.06
2023-01-08T12:33:37.820Z,11.06
2023-01-08T12:39:09.165Z,10.96
2023-01-08T12:44:40.674Z,10.91
2023-01-08T12:50:13.407Z,10.86
2023-01-08T12:55:44.126Z,11.0
2023-01-08T13:01:22.304Z,11.0
2023-01-08T13:06:53.982Z,10.87
2023-01-08T13:12:26.013Z,11.01
2023-01-08T13:17:57.468Z,11.08
2023-01-08T13:23:29.434Z,11.13
2023-01-08T13:29:01.080Z,11.35
2023-01-08T13:34:32.759Z,11.14
2023-01-08T13:40:04.321Z,11.18
2023-01-08T13:45:36.341Z,11.16
2023-01-08T13:51:08.085Z,11.33
2023-01-08T13:56:39.644Z,11.35
2023-01-08T14:02:15.907Z,11.32
2023-01-08T14:07:47.294Z,11.57
2023-01-08T14:13:19.329Z,11.73
2023-01-08T14:18:50.726Z,11.61
2023-01-08T14:24:23.051Z,11.69
2023-01-08T14:29:54.352Z,11.69
2023-01-08T14:35:25.877Z,11.66
2023-01-08T14:40:57.794Z,11.48
2023-01-08T14:46:29.328Z,11.53
2023-01-08T14:52:01.211Z,11.49
2023-01-08T14:57:33.401Z,11.54
2023-01-08T15:03:12.976Z,11.6
2023-01-08T15:08:45.301Z,11.64
2023-01-08T15:14:16.616Z,11.57
2023-01-08T15:19:48.508Z,11.49
2023-01-08T15:25:20.106Z,11.65
2023-01-08T15:30:51.654Z,11.37
2023-01-08T15:36:23.409Z,11.65
2023-01-08T15:41:55.085Z,11.67
2023-01-08T15:47:26.839Z,11.8
2023-01-08T15:52:58.739Z,11.76
2023-01-08T15:58:30.259Z,11.41
2023-01-08T16:04:06.438Z,11.44
2023-01-08T16:09:38.426Z,11.59
2023-01-08T16:15:10.027Z,11.36
2023-01-08T16:20:42.014Z,11.37
2023-01-08T16:26:13.525Z,11.59
2023-01-08T16:31:45.288Z,11.93
2023-01-08T16:37:16.934Z,11.67
2023-01-08T16:42:48.652Z,11.49
2023-01-08T16:48:20.633Z,11.43
2023-01-08T16:53:52.283Z,11.36
2023-01-08T16:59:24.099Z,11.33
2023-01-08T17:05:01.926Z,11.34
2023-01-08T17:10:34.034Z,11.47
2023-01-08T17:16:05.582Z,11.43
2023-01-08T17:21:37.078Z,11.55
2023-01-08T17:27:08.834Z,11.56
2023-01-08T17:32:40.732Z,11.55
2023-01-08T17:38:12.611Z,11.37
2023-01-08T17:43:43.996Z,11.45
2023-01-08T17:49:15.879Z,11.38
2023-01-08T17:54:47.833Z,11.34
2023-01-08T18:00:19.176Z,11.65
2023-01-08T18:05:55.272Z,11.55
2023-01-08T18:11:27.074Z,11.54
2023-01-08T18:16:58.961Z,11.38
2023-01-08T18:22:31.201Z,11.45
2023-01-08T18:28:02.194Z,11.21
2023-01-08T18:33:33.934Z,11.44
2023-01-08T18:39:05.616Z,11.58
2023-01-08T18:44:37.692Z,11.49
2023-01-08T18:50:09.659Z,11.58
2023-01-08T18:55:40.819Z,11.34
2023-01-08T19:01:12.623Z,11.36
2023-01-08T19:06:49.399Z,11.43
2023-01-08T19:12:21.105Z,11.36
2023-01-08T19:17:52.300Z,11.39
2023-01-08T19:23:23.765Z,11.3
2023-01-08T19:28:55.593Z,11.48
2023-01-08T19:34:27.347Z,11.36
2023-01-08T19:39:58.984Z,10.95
2023-01-08T19:45:31.362Z,10.7
2023-01-08T19:51:02.405Z,10.71
2023-01-08T19:56:35.089Z,10.69
2023-01-08T20:02:05.903Z,10.53
2023-01-08T20:07:41.962Z,10.54
2023-01-08T20:13:13.736Z,10.43
2023-01-08T20:18:45.615Z,10.45
2023-01-08T20:24:17.349Z,10.5
2023-01-08T20:29:48.991Z,10.22
2023-01-08T20:35:20.784Z,10.38
2023-01-08T20:40:52.485Z,10.37
2023-01-08T20:46:24.174Z,10.3
2023-01-08T20:51:58.996Z,10.28
2023-01-08T20:57:27.672Z,10.35
2023-01-08T21:02:59.630Z,10.28
2023-01-08T21:08:35.514Z,10.02
2023-01-08T21:14:07.150Z,9.84
2023-01-08T21:19:38.959Z,9.9
2023-01-08T21:25:11.009Z,9.94
2023-01-08T21:30:42.609Z,9.94
2023-01-08T21:36:14.328Z,9.92
2023-01-08T21:41:45.861Z,10.05
2023-01-08T21:47:17.569Z,10.09
2023-01-08T21:52:49.500Z,10.51
2023-01-08T21:58:21.029Z,10.41
2023-01-08T22:03:52.809Z,9.97
2023-01-08T22:09:28.863Z,10.18
2023-01-08T22:15:00.931Z,10.29
2023-01-08T22:20:32.594Z,10.14
2023-01-08T22:26:04.257Z,9.9
2023-01-08T22:31:36.149Z,9.68
2023-01-08T22:37:07.498Z,9.77
2023-01-08T22:42:39.220Z,9.78
2023-01-08T22:48:10.954Z,9.63
2023-01-08T22:53:42.662Z,9.31
2023-01-08T22:59:14.634Z,9.6
2023-01-08T23:04:46.480Z,9.4
2023-01-08T23:10:22.288Z,9.29
2023-01-08T23:15:54.245Z,9.29
2023-01-08T23:21:25.719Z,9.18
2023-01-08T23:26:57.382Z,9.32
2023-01-08T23:32:29.186Z,9.11
2023-01-08T23:38:00.884Z,9.31
2023-01-08T23:43:32.610Z,9.26
2023-01-08T23:49:04.919Z,9.38
2023-01-08T23:54:36.016Z,9.4
